Time,TemperatureF,DewpointF,PressureIn,WindDirection,WindDirectionDegrees,WindSpeedMPH,WindSpeedGustMPH,Humidity,HourlyPrecipIn,Conditions,Clouds,dailyrainin,SoftwareType,DateUTC
2013-06-20 00:02:00,67.0,66.0,30.11,SE,135,0.0,0.0,95,0.00,,,0.01,,2013-06-20 04:02:00,
2013-06-20 00:11:00,67.0,66.0,30.11,SE,135,0.0,0.0,95,0.00,,,0.01,,2013-06-20 04:11:00,
2013-06-20 00:22:00,67.0,65.0,30.12,SE,135,0.0,0.0,93,0.00,,,0.01,,2013-06-20 04:22:00,
2013-06-20 00:34:00,67.0,65.0,30.12,SE,135,0.0,0.0,93,0.00,,,0.01,,2013-06-20 04:34:00,
2013-06-20 00:43:00,67.0,65.0,30.12,SE,135,0.0,0.0,93,0.00,,,0.01,,2013-06-20 04:43:00,
2013-06-20 00:54:00,66.0,64.0,30.12,SE,135,0.0,0.0,92,0.00,,,0.01,,2013-06-20 04:54:00,
2013-06-20 01:02:00,66.0,64.0,30.12,SE,135,0.0,0.0,92,0.00,,,0.01,,2013-06-20 05:02:00,
2013-06-20 01:12:00,66.0,63.0,30.12,SE,135,0.0,0.0,91,0.00,,,0.01,,2013-06-20 05:12:00,
2013-06-20 01:22:00,65.0,62.0,30.12,SE,135,0.0,0.0,91,0.00,,,0.01,,2013-06-20 05:22:00,
2013-06-20 01:33:00,65.0,62.0,30.12,SE,135,0.0,0.0,91,0.00,,,0.01,,2013-06-20 05:33:00,
2013-06-20 01:44:00,65.0,62.0,30.12,SE,135,0.0,0.0,91,0.00,,,0.01,,2013-06-20 05:44:00,
2013-06-20 01:52:00,65.0,62.0,30.12,SE,135,0.0,0.0,90,0.00,,,0.01,,2013-06-20 05:52:00,
2013-06-20 02:02:00,65.0,62.0,30.12,SE,135,0.0,0.0,90,0.00,,,0.01,,2013-06-20 06:02:00,
2013-06-20 02:11:00,64.0,61.0,30.12,SE,135,0.0,0.0,90,0.00,,,0.01,,2013-06-20 06:11:00,
2013-06-20 02:22:00,64.0,61.0,30.12,SE,135,0.0,0.0,90,0.00,,,0.01,,2013-06-20 06:22:00,
2013-06-20 02:33:00,64.0,61.0,30.12,SE,135,0.0,0.0,90,0.00,,,0.01,,2013-06-20 06:33:00,
2013-06-20 02:43:00,64.0,61.0,30.12,SE,135,0.0,0.0,89,0.00,,,0.01,,2013-06-20 06:43:00,
2013-06-20 02:53:00,63.0,60.0,30.12,SE,135,0.0,0.0,89,0.00,,,0.01,,2013-06-20 06:53:00,
2013-06-20 03:01:00,63.0,60.0,30.12,SE,135,0.0,0.0,89,0.00,,,0.01,,2013-06-20 07:01:00,
2013-06-20 03:12:00,63.0,60.0,30.12,SE,135,0.0,0.0,89,0.00,,,0.01,,2013-06-20 07:12:00,
2013-06-20 03:22:00,63.0,60.0,30.12,SE,135,0.0,0.0,89,0.00,,,0.01,,2013-06-20 07:22:00,
2013-06-20 03:34:00,63.0,60.0,30.12,SE,135,0.0,0.0,89,0.00,,,0.01,,2013-06-20 07:34:00,
2013-06-20 03:44:00,63.0,60.0,30.12,SE,135,0.0,0.0,89,0.00,,,0.01,,2013-06-20 07:44:00,
2013-06-20 03:53:00,63.0,60.0,30.11,SE,135,0.0,0.0,89,0.00,,,0.01,,2013-06-20 07:53:00,
2013-06-20 04:02:00,63.0,60.0,30.11,SE,135,0.0,0.0,89,0.00,,,0.01,,2013-06-20 08:02:00,
2013-06-20 04:11:00,63.0,59.0,30.12,SE,135,0.0,0.0,88,0.00,,,0.01,,2013-06-20 08:11:00,
2013-06-20 04:22:00,63.0,59.0,30.12,SE,135,0.0,0.0,88,0.00,,,0.01,,2013-06-20 08:22:00,
2013-06-20 04:34:00,63.0,59.0,30.12,SE,135,0.0,0.0,88,0.00,,,0.01,,2013-06-20 08:34:00,
2013-06-20 04:43:00,63.0,60.0,30.13,SE,135,0.0,0.0,89,0.00,,,0.01,,2013-06-20 08:43:00,
2013-06-20 04:53:00,63.0,60.0,30.13,SE,135,0.0,0.0,89,0.00,,,0.01,,2013-06-20 08:53:00,
2013-06-20 05:02:00,62.0,59.0,30.13,SE,135,0.0,0.0,89,0.00,,,0.01,,2013-06-20 09:02:00,
2013-06-20 05:12:00,62.0,59.0,30.13,SE,135,0.0,0.0,89,0.00,,,0.01,,2013-06-20 09:12:00,
2013-06-20 05:22:00,62.0,58.0,30.13,SE,135,0.0,0.0,88,0.00,,,0.01,,2013-06-20 09:22:00,
2013-06-20 05:33:00,62.0,59.0,30.13,SE,135,0.0,0.0,89,0.00,,,0.01,,2013-06-20 09:33:00,
2013-06-20 05:42:00,62.0,59.0,30.13,SE,135,0.0,0.0,89,0.00,,,0.01,,2013-06-20 09:42:00,
2013-06-20 05:52:00,62.0,58.0,30.13,SE,135,0.0,0.0,88,0.00,,,0.01,,2013-06-20 09:52:00,
2013-06-20 06:01:00,62.0,59.0,30.13,SE,135,0.0,0.0,89,0.00,,,0.01,,2013-06-20 10:01:00,
2013-06-20 06:11:00,62.0,59.0,30.13,SE,135,0.0,0.0,89,0.00,,,0.01,,2013-06-20 10:11:00,
2013-06-20 06:22:00,62.0,59.0,30.14,SE,135,0.0,0.0,90,0.00,,,0.01,,2013-06-20 10:22:00,
2013-06-20 06:34:00,62.0,59.0,30.14,SE,135,0.0,0.0,90,0.00,,,0.01,,2013-06-20 10:34:00,
2013-06-20 06:43:00,62.0,59.0,30.14,SE,135,0.0,0.0,90,0.00,,,0.01,,2013-06-20 10:43:00,
2013-06-20 06:53:00,62.0,58.0,30.15,SE,135,0.0,0.0,87,0.00,,,0.01,,2013-06-20 10:53:00,
2013-06-20 07:02:00,62.0,58.0,30.15,SE,135,0.0,0.0,87,0.00,,,0.01,,2013-06-20 11:02:00,
2013-06-20 07:12:00,61.0,58.0,30.15,SE,135,0.0,0.0,89,0.00,,,0.01,,2013-06-20 11:12:00,
2013-06-20 07:22:00,61.0,58.0,30.15,SE,135,0.0,0.0,89,0.00,,,0.01,,2013-06-20 11:22:00,
2013-06-20 07:34:00,63.0,59.0,30.16,North,360,0.0,0.0,88,0.00,,,0.01,,2013-06-20 11:34:00,
2013-06-20 07:42:00,63.0,59.0,30.16,North,360,0.0,0.0,88,0.00,,,0.01,,2013-06-20 11:42:00,
2013-06-20 07:53:00,66.0,62.0,30.16,North,360,0.0,0.0,88,0.00,,,0.01,,2013-06-20 11:53:00,
2013-06-20 08:02:00,66.0,62.0,30.16,North,360,0.0,0.0,86,0.00,,,0.01,,2013-06-20 12:02:00,
2013-06-20 08:11:00,66.0,62.0,30.16,North,360,0.0,0.0,86,0.00,,,0.01,,2013-06-20 12:11:00,
2013-06-20 08:22:00,67.0,62.0,30.18,SE,135,2.0,4.0,85,0.00,,,0.01,,2013-06-20 12:22:00,
2013-06-20 08:34:00,70.0,68.0,30.19,SE,135,4.0,6.0,93,0.00,,,0.01,,2013-06-20 12:34:00,
2013-06-20 08:43:00,72.0,69.0,30.20,SSE,157,3.0,7.0,89,0.00,,,0.01,,2013-06-20 12:43:00,
2013-06-20 08:53:00,72.0,69.0,30.20,SSE,157,3.0,7.0,89,0.00,,,0.01,,2013-06-20 12:53:00,
2013-06-20 09:02:00,72.0,68.0,30.20,SE,135,3.0,5.0,87,0.00,,,0.01,,2013-06-20 13:02:00,
2013-06-20 09:11:00,73.0,68.0,30.21,East,90,3.0,5.0,84,0.00,,,0.01,,2013-06-20 13:11:00,
2013-06-20 09:22:00,74.0,68.0,30.21,East,90,5.0,6.0,82,0.00,,,0.00,,2013-06-20 13:22:00,
2013-06-20 09:42:00,76.0,67.0,30.22,SE,135,2.0,4.0,75,0.00,,,0.00,,2013-06-20 13:42:00,
2013-06-20 09:53:00,76.0,67.0,30.22,East,90,4.0,7.0,75,0.00,,,0.00,,2013-06-20 13:53:00,
2013-06-20 10:02:00,77.0,67.0,30.23,East,90,5.0,9.0,72,0.00,,,0.00,,2013-06-20 14:02:00,
2013-06-20 10:11:00,78.0,67.0,30.23,East,90,4.0,7.0,70,0.00,,,0.00,,2013-06-20 14:11:00,
2013-06-20 10:22:00,78.0,67.0,30.23,East,90,4.0,7.0,70,0.00,,,0.00,,2013-06-20 14:22:00,
2013-06-20 10:32:00,80.0,68.0,30.24,ESE,112,3.0,5.0,67,0.00,,,0.00,,2013-06-20 14:32:00,
2013-06-20 10:42:00,81.0,67.0,30.24,SE,135,4.0,7.0,62,0.00,,,0.00,,2013-06-20 14:42:00,
2013-06-20 10:53:00,81.0,67.0,30.24,SSE,157,3.0,6.0,62,0.00,,,0.00,,2013-06-20 14:53:00,
2013-06-20 11:02:00,81.0,67.0,30.24,SSE,157,0.0,3.0,62,0.00,,,0.00,,2013-06-20 15:02:00,
2013-06-20 11:11:00,82.0,68.0,30.25,SW,225,2.0,4.0,62,0.00,,,0.00,,2013-06-20 15:11:00,
2013-06-20 11:22:00,83.0,67.0,30.25,East,90,3.0,5.0,59,0.00,,,0.00,,2013-06-20 15:22:00,
2013-06-20 11:33:00,83.0,67.0,30.25,NE,45,3.0,6.0,59,0.00,,,0.00,,2013-06-20 15:33:00,
2013-06-20 11:43:00,83.0,68.0,30.25,SSE,157,2.0,6.0,61,0.00,,,0.00,,2013-06-20 15:43:00,
2013-06-20 11:53:00,83.0,67.0,30.25,East,90,4.0,6.0,59,0.00,,,0.00,,2013-06-20 15:53:00,
2013-06-20 12:01:00,84.0,67.0,30.25,SE,135,2.0,4.0,56,0.00,,,0.00,,2013-06-20 16:01:00,
2013-06-20 12:12:00,85.0,65.0,30.26,SE,135,3.0,4.0,52,0.00,,,0.00,,2013-06-20 16:12:00,
2013-06-20 12:22:00,86.0,67.0,30.26,SE,135,1.0,3.0,54,0.00,,,0.00,,2013-06-20 16:22:00,
2013-06-20 12:33:00,86.0,66.0,30.26,SE,135,3.0,5.0,52,0.00,,,0.00,,2013-06-20 16:33:00,
2013-06-20 12:42:00,86.0,66.0,30.26,SE,135,3.0,5.0,52,0.00,,,0.00,,2013-06-20 16:42:00,
2013-06-20 12:52:00,86.0,66.0,30.26,SE,135,3.0,5.0,52,0.00,,,0.00,,2013-06-20 16:52:00,
2013-06-20 13:02:00,86.0,66.0,30.25,NE,45,2.0,5.0,51,0.00,,,0.00,,2013-06-20 17:02:00,
2013-06-20 13:12:00,86.0,65.0,30.26,ESE,112,3.0,4.0,49,0.00,,,0.00,,2013-06-20 17:12:00,
2013-06-20 13:22:00,86.0,66.0,30.25,ENE,67,4.0,6.0,51,0.00,,,0.00,,2013-06-20 17:22:00,
2013-06-20 13:32:00,86.0,66.0,30.25,ENE,67,4.0,6.0,51,0.00,,,0.00,,2013-06-20 17:32:00,
2013-06-20 13:43:00,85.0,64.0,30.25,SE,135,5.0,8.0,50,0.00,,,0.00,,2013-06-20 17:43:00,
2013-06-20 13:53:00,85.0,64.0,30.25,SE,135,5.0,8.0,50,0.00,,,0.00,,2013-06-20 17:53:00,
2013-06-20 14:01:00,88.0,63.0,30.25,ESE,112,3.0,6.0,44,0.00,,,0.00,,2013-06-20 18:01:00,
2013-06-20 14:11:00,89.0,64.0,30.25,South,180,5.0,7.0,43,0.00,,,0.00,,2013-06-20 18:11:00,
2013-06-20 14:22:00,90.0,65.0,30.25,SE,135,3.0,6.0,44,0.00,,,0.00,,2013-06-20 18:22:00,
2013-06-20 14:33:00,89.0,64.0,30.25,ESE,112,5.0,7.0,43,0.00,,,0.00,,2013-06-20 18:33:00,
2013-06-20 14:43:00,89.0,64.0,30.25,ESE,112,5.0,7.0,43,0.00,,,0.00,,2013-06-20 18:43:00,
2013-06-20 14:53:00,90.0,62.0,30.25,SE,135,5.0,8.0,40,0.00,,,0.00,,2013-06-20 18:53:00,
2013-06-20 15:01:00,88.0,61.0,30.24,South,180,4.0,6.0,41,0.00,,,0.00,,2013-06-20 19:01:00,
2013-06-20 15:11:00,90.0,64.0,30.24,SE,135,3.0,5.0,42,0.00,,,0.00,,2013-06-20 19:11:00,
2013-06-20 15:22:00,91.0,65.0,30.24,South,180,1.0,5.0,42,0.00,,,0.00,,2013-06-20 19:22:00,
2013-06-20 15:34:00,91.0,63.0,30.24,ESE,112,4.0,7.0,40,0.00,,,0.00,,2013-06-20 19:34:00,
2013-06-20 15:43:00,88.0,63.0,30.23,ESE,112,3.0,6.0,43,0.00,,,0.00,,2013-06-20 19:43:00,
2013-06-20 15:52:00,88.0,63.0,30.23,ESE,112,3.0,6.0,43,0.00,,,0.00,,2013-06-20 19:52:00,
2013-06-20 16:02:00,87.0,62.0,30.23,SE,135,3.0,6.0,44,0.00,,,0.00,,2013-06-20 20:02:00,
2013-06-20 16:11:00,88.0,61.0,30.23,South,180,2.0,4.0,41,0.00,,,0.00,,2013-06-20 20:11:00,
2013-06-20 16:22:00,88.0,63.0,30.23,SW,225,2.0,4.0,43,0.00,,,0.00,,2013-06-20 20:22:00,
2013-06-20 16:42:00,89.0,61.0,30.22,South,180,2.0,3.0,40,0.00,,,0.00,,2013-06-20 20:42:00,
2013-06-20 16:52:00,88.0,61.0,30.22,West,270,2.0,3.0,40,0.00,,,0.00,,2013-06-20 20:52:00,